Time;durP1;ratioP1;P1;durP2;ratioP2;P2;SDS_P1;SDS_P2;PMS_P1;PMS_P2;Temp;Humidity;BMP_temperature;BMP_pressure;BME280_temperature;BME280_humidity;BME280_pressure;Samples;Min_cycle;Max_cycle;Signal;HPM_P1;HPM_P2
2022/03/30 00:01:18;;;;;;;20.80;17.63;;;10.10;99.90;;;10.93;66.29;96677.94;5199802;28;20229;-57
2022/03/30 00:03:52;;;;;;;20.53;18.23;;;10.10;99.90;;;10.95;66.76;96683.97;5201348;28;20232;-58
2022/03/30 00:06:25;;;;;;;21.53;18.27;;;10.00;99.90;;;10.76;66.86;96680.75;5203782;28;20291;-58
2022/03/30 00:08:58;;;;;;;20.27;17.63;;;9.90;99.90;;;10.82;66.46;96687.78;5203179;28;20649;-59
2022/03/30 00:11:32;;;;;;;18.57;16.57;;;9.90;99.90;;;10.78;66.47;96684.22;5201994;28;20627;-55
2022/03/30 00:14:06;;;;;;;19.30;16.73;;;9.80;99.90;;;10.79;65.94;96687.69;5201534;28;20287;-58
2022/03/30 00:16:40;;;;;;;20.60;17.70;;;9.80;99.90;;;10.70;67.61;96693.31;5201035;28;20609;-59
2022/03/30 00:19:13;;;;;;;20.40;17.33;;;9.70;99.90;;;10.67;67.17;96687.19;5202489;28;20198;-59
2022/03/30 00:21:46;;;;;;;22.13;18.10;;;9.70;99.90;;;10.58;67.39;96682.63;5201178;28;20289;-59
2022/03/30 00:24:19;;;;;;;21.80;17.83;;;9.70;99.90;;;10.63;67.51;96681.09;5202849;28;20268;-59
2022/03/30 00:26:54;;;;;;;20.40;17.97;;;9.70;99.90;;;10.59;67.47;96684.38;5201835;28;20253;-59
2022/03/30 00:29:27;;;;;;;22.47;17.87;;;9.70;99.90;;;10.57;66.97;96680.88;5203596;28;20233;-59
2022/03/30 00:32:00;;;;;;;23.77;19.27;;;9.60;99.90;;;10.56;67.79;96680.03;5202318;28;20284;-55
2022/03/30 00:34:33;;;;;;;20.23;17.63;;;9.60;99.90;;;10.55;68.12;96672.28;5202815;28;20602;-59
2022/03/30 00:37:06;;;;;;;20.10;18.00;;;9.70;99.90;;;10.55;68.55;96683.38;5199088;28;20197;-59
2022/03/30 00:39:39;;;;;;;23.20;18.77;;;9.60;99.90;;;10.54;68.83;96675.66;5200649;28;20285;-59
2022/03/30 00:42:19;;;;;;;19.97;17.87;;;9.70;99.90;;;10.54;67.94;96670.56;5204881;28;20233;-54
2022/03/30 00:44:53;;;;;;;20.17;17.80;;;9.60;99.90;;;10.47;68.26;96663.44;5202107;28;20313;-57
2022/03/30 00:47:28;;;;;;;20.40;18.23;;;9.50;99.90;;;10.45;68.67;96665.97;5206196;28;20693;-58
2022/03/30 00:50:01;;;;;;;21.27;17.27;;;9.60;99.90;;;10.42;68.81;96664.97;5205480;28;20293;-56
2022/03/30 00:52:35;;;;;;;20.17;17.97;;;9.50;99.90;;;10.41;68.81;96661.53;5205894;28;20226;-56
2022/03/30 00:55:10;;;;;;;21.43;18.13;;;9.50;99.90;;;10.39;69.86;96658.06;5203560;28;20300;-59
2022/03/30 00:57:46;;;;;;;21.40;17.67;;;9.50;99.90;;;10.41;68.03;96668.34;5206729;28;20197;-57
2022/03/30 01:00:20;;;;;;;22.63;18.10;;;9.40;99.90;;;10.36;69.34;96663.94;5205775;28;20189;-56
2022/03/30 01:02:54;;;;;;;21.50;17.53;;;9.40;99.90;;;10.28;68.13;96660.22;5202284;28;20252;-59
2022/03/30 01:05:27;;;;;;;18.73;16.70;;;9.30;99.90;;;10.28;68.90;96667.88;5206204;28;20724;-58
2022/03/30 01:08:00;;;;;;;23.97;18.77;;;9.30;99.90;;;10.18;69.64;96664.84;5205311;28;20308;-58
2022/03/30 01:10:33;;;;;;;19.97;17.80;;;9.30;99.90;;;10.20;69.56;96653.03;5205588;28;20194;-58
2022/03/30 01:13:08;;;;;;;22.83;18.03;;;9.30;99.90;;;10.26;69.55;96654.13;5204773;28;20643;-57
2022/03/30 01:15:42;;;;;;;20.80;17.77;;;9.40;99.90;;;10.30;69.66;96655.13;5205392;28;20260;-59
2022/03/30 01:18:15;;;;;;;21.33;18.30;;;9.40;99.90;;;10.36;70.27;96646.06;5202413;28;20701;-58
2022/03/30 01:20:50;;;;;;;20.37;17.47;;;9.50;99.90;;;10.41;69.73;96647.91;5205461;28;20280;-59
2022/03/30 01:23:23;;;;;;;20.53;17.87;;;9.50;99.90;;;10.43;69.50;96644.59;5204124;28;20198;-59
2022/03/30 01:25:56;;;;;;;19.23;17.23;;;9.50;99.90;;;10.41;69.01;96643.66;5205688;28;20650;-57
2022/03/30 01:28:30;;;;;;;18.03;16.23;;;9.40;99.90;;;10.41;69.69;96642.78;5205192;28;20681;-59
2022/03/30 01:33:54;;;;;;;21.00;18.37;;;9.40;99.90;;;10.33;69.56;96629.72;5201729;28;20218;-58
2022/03/30 01:36:28;;;;;;;19.83;17.27;;;9.40;99.90;;;10.27;70.40;96625.28;5208850;28;20201;-59
2022/03/30 01:39:02;;;;;;;19.30;16.60;;;9.40;99.90;;;10.32;69.56;96631.41;5202459;28;20749;-58
2022/03/30 01:41:35;;;;;;;21.67;18.23;;;9.40;99.90;;;10.30;70.41;96624.50;5209782;28;20539;-59
2022/03/30 01:44:08;;;;;;;19.67;17.47;;;9.40;99.90;;;10.30;70.93;96627.06;5207141;28;20735;-56
2022/03/30 01:46:42;;;;;;;19.00;17.00;;;9.40;99.90;;;10.34;71.05;96626.38;5205246;28;20213;-57
2022/03/30 01:49:15;;;;;;;21.93;17.60;;;9.40;99.90;;;10.35;69.63;96621.31;5205724;28;20208;-58
2022/03/30 01:51:50;;;;;;;20.67;17.97;;;9.40;99.90;;;10.36;70.50;96617.97;5205079;28;20289;-58
2022/03/30 01:54:26;;;;;;;20.70;17.07;;;9.40;99.90;;;10.33;69.40;96619.50;5203303;28;20225;-58
2022/03/30 01:56:59;;;;;;;22.60;17.63;;;9.30;99.90;;;10.20;70.77;96618.16;5202460;28;20665;-58
2022/03/30 01:59:32;;;;;;;19.83;17.03;;;9.20;99.90;;;10.20;70.54;96613.03;5205176;28;20261;-59
2022/03/30 02:02:07;;;;;;;18.17;16.27;;;9.30;99.90;;;10.17;71.24;96602.72;5203112;28;20615;-56
2022/03/30 02:04:41;;;;;;;19.70;17.67;;;9.30;99.90;;;10.15;71.42;96612.00;5200341;28;20225;-58
2022/03/30 02:07:20;;;;;;;21.20;18.00;;;9.30;99.90;;;10.17;71.88;96607.81;5204062;28;20266;-59
2022/03/30 02:09:53;;;;;;;19.83;17.20;;;9.30;99.90;;;10.04;71.05;96595.38;5201666;28;20288;-58
2022/03/30 02:12:26;;;;;;;19.83;17.83;;;9.20;99.90;;;10.07;71.42;96590.41;5202777;28;20214;-57
2022/03/30 02:14:59;;;;;;;20.73;18.07;;;9.20;99.90;;;10.14;71.67;96597.50;5203409;28;20726;-58
2022/03/30 02:17:33;;;;;;;20.90;18.70;;;9.20;99.90;;;10.21;71.11;96588.38;5204749;28;20194;-58
2022/03/30 02:20:09;;;;;;;23.70;18.03;;;9.20;99.90;;;10.17;71.25;96589.94;5204598;28;20284;-56
2022/03/30 02:22:43;;;;;;;20.57;18.37;;;9.20;99.90;;;10.07;72.26;96595.50;5205182;28;20620;-58
2022/03/30 02:25:17;;;;;;;20.67;17.87;;;9.10;99.90;;;10.07;71.28;96598.06;5203617;28;20242;-57
2022/03/30 02:27:50;;;;;;;19.90;17.77;;;9.00;99.90;;;10.07;71.13;96590.41;5204470;28;20221;-58
2022/03/30 02:30:23;;;;;;;22.43;19.20;;;9.10;99.90;;;10.07;72.14;96591.28;5203201;28;20722;-59
2022/03/30 02:32:57;;;;;;;22.13;17.43;;;9.20;99.90;;;10.09;71.43;96589.66;5199736;28;20202;-57
2022/03/30 02:35:31;;;;;;;19.83;17.37;;;9.10;99.90;;;10.08;71.80;96582.81;5204671;28;20633;-56
2022/03/30 02:38:06;;;;;;;20.23;17.50;;;9.10;99.90;;;10.07;71.41;96590.41;5202749;28;20198;-57
2022/03/30 02:40:39;;;;;;;20.20;17.93;;;9.10;99.90;;;10.03;72.35;96588.56;5197870;28;20229;-59
2022/03/30 02:43:16;;;;;;;21.53;17.93;;;9.20;99.90;;;10.06;72.72;96579.31;5202251;28;20205;-56
2022/03/30 02:45:49;;;;;;;20.27;17.90;;;9.20;99.90;;;10.07;72.64;96580.19;5204854;28;20237;-57
2022/03/30 02:48:28;;;;;;;20.30;18.23;;;9.20;99.90;;;10.09;72.52;96569.22;5203897;28;20664;-58
2022/03/30 02:51:04;;;;;;;20.87;18.60;;;9.20;99.90;;;9.99;71.97;96573.94;5205383;28;20244;-59
2022/03/30 02:53:38;;;;;;;23.33;18.23;;;9.10;99.90;;;10.03;72.16;96565.56;5204058;28;20248;-59
2022/03/30 02:56:12;;;;;;;20.03;17.93;;;9.10;99.90;;;10.04;71.23;96557.09;5204139;28;20236;-57
2022/03/30 02:58:45;;;;;;;20.57;18.33;;;9.10;99.90;;;10.02;72.04;96562.16;5203784;28;20230;-58
2022/03/30 03:01:18;;;;;;;21.17;18.83;;;9.20;99.90;;;10.03;72.10;96566.44;5204086;28;20293;-59
2022/03/30 03:03:51;;;;;;;20.63;18.30;;;9.20;99.90;;;10.05;72.59;96556.31;5202121;28;20229;-59
2022/03/30 03:06:24;;;;;;;22.10;19.10;;;9.20;99.90;;;10.07;72.58;96557.22;5201873;28;20678;-58
2022/03/30 03:08:58;;;;;;;20.23;17.80;;;9.20;99.90;;;10.12;73.04;96542.94;5203276;28;20257;-58
2022/03/30 03:11:31;;;;;;;22.30;19.13;;;9.20;99.90;;;10.05;73.07;96556.31;5199576;28;20646;-58
2022/03/30 03:14:07;;;;;;;20.13;17.53;;;9.20;99.90;;;10.04;72.49;96547.75;5203852;28;20256;-59
2022/03/30 03:16:40;;;;;;;20.93;18.40;;;9.10;99.90;;;9.96;72.54;96545.72;5202955;28;20197;-58
2022/03/30 03:19:14;;;;;;;23.17;18.73;;;9.00;99.90;;;9.84;72.80;96548.69;5201468;28;20285;-57
2022/03/30 03:21:47;;;;;;;20.00;17.90;;;8.90;99.90;;;9.79;72.74;96543.41;5197102;28;20616;-59
2022/03/30 03:24:22;;;;;;;22.07;19.17;;;8.90;99.90;;;9.81;73.98;96546.88;5202723;28;20218;-58
2022/03/30 03:26:55;;;;;;;20.23;17.10;;;9.00;99.90;;;9.87;73.02;96544.59;5204247;28;20197;-56
2022/03/30 03:29:28;;;;;;;20.83;18.60;;;9.00;99.90;;;9.89;73.58;96530.19;5201807;28;20305;-56
2022/03/30 03:32:01;;;;;;;20.80;18.57;;;9.00;99.90;;;9.91;72.74;96533.66;5202639;28;20328;-56
2022/03/30 03:34:34;;;;;;;21.80;19.50;;;9.00;99.90;;;9.87;73.23;96525.81;5203070;28;20252;-58
2022/03/30 03:37:08;;;;;;;22.37;19.47;;;9.00;99.90;;;9.81;74.09;96529.00;5201508;28;20643;-58
2022/03/30 03:39:42;;;;;;;22.90;18.77;;;8.90;99.90;;;9.75;73.30;96523.69;5203003;28;20229;-58
2022/03/30 03:42:16;;;;;;;18.27;16.37;;;8.80;99.90;;;9.69;73.48;96515.78;5202605;28;20637;-57
2022/03/30 03:44:49;;;;;;;19.67;17.30;;;8.80;99.90;;;9.68;73.23;96520.03;5203538;28;20214;-59
2022/03/30 03:47:22;;;;;;;21.13;18.47;;;8.80;99.90;;;9.76;74.39;96512.69;5201200;28;20292;-57
2022/03/30 03:49:56;;;;;;;20.63;18.27;;;8.90;99.90;;;9.81;73.62;96505.19;5200705;28;20311;-56
2022/03/30 03:52:29;;;;;;;21.57;18.43;;;8.90;99.90;;;9.82;73.69;96509.50;5204126;28;20198;-57
2022/03/30 03:55:04;;;;;;;22.27;19.20;;;9.00;99.90;;;9.78;73.98;96505.06;5203070;28;20311;-59
2022/03/30 03:57:39;;;;;;;22.27;18.83;;;8.90;99.90;;;9.76;74.81;96505.03;5201690;28;20221;-59
2022/03/30 04:00:13;;;;;;;20.90;18.20;;;8.80;99.90;;;9.73;74.34;96498.91;5198099;28;20296;-56
2022/03/30 04:02:47;;;;;;;21.10;18.77;;;8.80;99.90;;;9.72;74.40;96495.50;5198302;28;20280;-57
2022/03/30 04:05:20;;;;;;;21.93;19.10;;;8.90;99.90;;;9.77;75.27;96499.09;5203086;28;20279;-58
2022/03/30 04:07:53;;;;;;;20.70;18.60;;;8.90;99.90;;;9.81;74.28;96500.06;5202059;28;20329;-59
2022/03/30 04:10:28;;;;;;;22.17;19.60;;;8.90;99.90;;;9.79;75.03;96507.69;5205594;28;20660;-56
2022/03/30 04:13:01;;;;;;;20.50;18.27;;;8.90;99.90;;;9.84;74.92;96515.50;5198882;28;20251;-59
2022/03/30 04:15:34;;;;;;;22.77;19.07;;;9.00;99.90;;;9.86;74.39;96522.41;5199527;28;20659;-55
2022/03/30 04:18:08;;;;;;;22.77;19.40;;;9.00;99.90;;;9.83;75.51;96517.19;5204476;28;20202;-58
2022/03/30 04:20:44;;;;;;;21.17;18.83;;;9.00;99.90;;;9.88;75.50;96513.13;5205522;28;20202;-59
2022/03/30 04:23:17;;;;;;;22.37;19.73;;;9.00;99.90;;;9.83;74.75;96504.44;5203975;28;20292;-59
2022/03/30 04:25:51;;;;;;;26.03;21.07;;;9.00;99.90;;;9.79;75.11;96507.69;5207107;28;20237;-58
2022/03/30 04:28:24;;;;;;;23.30;20.80;;;8.90;99.90;;;9.74;76.27;96513.44;5205232;28;20255;-57
2022/03/30 04:30:58;;;;;;;26.27;22.07;;;9.00;99.90;;;9.79;76.61;96507.69;5206538;28;20248;-56
2022/03/30 04:33:31;;;;;;;24.70;21.20;;;9.00;99.90;;;9.73;76.48;96504.91;5204593;28;20201;-59
2022/03/30 04:36:05;;;;;;;26.17;22.30;;;8.90;99.90;;;9.74;77.15;96514.28;5206986;28;20241;-56
2022/03/30 04:38:38;;;;;;;24.07;21.57;;;9.00;99.90;;;9.79;77.53;96507.69;5202831;28;20669;-58
2022/03/30 04:41:13;;;;;;;23.63;21.23;;;9.00;99.90;;;9.83;78.09;96504.44;5205933;28;20229;-55
2022/03/30 04:43:46;;;;;;;23.40;20.93;;;9.00;99.90;;;9.84;77.94;96521.50;5204119;28;20244;-54
2022/03/30 04:46:20;;;;;;;24.00;21.40;;;9.00;99.90;;;9.84;77.76;96500.19;5204154;28;20742;-58
2022/03/30 04:48:53;;;;;;;23.23;20.73;;;9.00;99.90;;;9.85;78.09;96505.38;5203092;28;20226;-54
2022/03/30 04:51:26;;;;;;;23.07;20.53;;;9.00;99.90;;;9.84;78.55;96506.19;5204863;28;20293;-53
2022/03/30 04:53:59;;;;;;;26.77;21.60;;;9.00;99.90;;;9.85;78.92;96497.72;5206363;28;20304;-59
2022/03/30 04:56:33;;;;;;;23.37;20.33;;;9.00;99.90;;;9.72;78.27;96504.84;5207784;28;20225;-58
2022/03/30 04:59:06;;;;;;;23.30;20.73;;;8.90;99.90;;;9.76;78.41;96507.59;5206585;28;20623;-56
2022/03/30 05:01:39;;;;;;;26.10;20.37;;;8.90;99.90;;;9.70;78.59;96512.44;5205270;28;20256;-59
2022/03/30 05:04:13;;;;;;;26.20;22.10;;;8.90;99.90;;;9.63;78.88;96507.91;5205989;28;20222;-57
2022/03/30 05:06:46;;;;;;;23.53;21.03;;;8.90;99.90;;;9.64;79.87;96507.09;5206002;28;20653;-59
2022/03/30 05:09:19;;;;;;;24.53;21.97;;;8.90;99.90;;;9.62;82.22;96503.63;5204297;28;20253;-58
2022/03/30 05:11:53;;;;;;;25.53;21.67;;;8.90;99.90;;;9.65;81.50;96504.59;5206230;28;20609;-50
2022/03/30 05:14:26;;;;;;;25.73;21.93;;;8.90;99.90;;;9.64;82.28;96519.84;5203084;28;20331;-54
2022/03/30 05:16:59;;;;;;;23.73;20.93;;;8.90;99.90;;;9.64;82.30;96507.09;5202697;28;20221;-54
2022/03/30 05:19:33;;;;;;;24.23;21.10;;;8.90;99.90;;;9.59;81.37;96508.63;5200228;28;20689;-55
2022/03/30 05:22:06;;;;;;;28.77;25.03;;;8.90;99.90;;;9.52;83.24;96506.63;5205703;28;20297;-58
2022/03/30 05:24:40;;;;;;;30.30;24.97;;;8.90;99.90;;;9.51;83.39;96512.53;5206059;28;20458;-58
2022/03/30 05:27:14;;;;;;;34.17;25.77;;;8.80;99.90;;;9.47;84.10;96502.22;5206393;28;20312;-51
2022/03/30 05:29:47;;;;;;;27.10;23.67;;;8.80;99.90;;;9.43;84.69;96504.59;5205247;28;20225;-53
2022/03/30 05:32:20;;;;;;;25.53;22.53;;;8.80;99.90;;;9.43;85.37;96512.22;5205680;28;20221;-57
2022/03/30 05:34:53;;;;;;;26.60;23.43;;;8.80;99.90;;;9.48;86.25;96510.75;5201877;28;20279;-60
2022/03/30 05:37:32;;;;;;;27.20;23.73;;;8.80;99.90;;;9.46;86.75;96508.13;5204321;28;20253;-57
2022/03/30 05:40:09;;;;;;;28.63;24.70;;;8.80;99.90;;;9.43;87.49;96508.00;5205922;28;20673;-55
2022/03/30 05:42:44;;;;;;;28.13;24.73;;;8.80;99.90;;;9.41;87.97;96512.19;5205551;28;20233;-53
2022/03/30 05:45:17;;;;;;;30.10;26.90;;;8.80;99.90;;;9.39;88.39;96516.34;5205783;28;20217;-52
2022/03/30 05:47:50;;;;;;;33.13;27.97;;;8.80;99.90;;;9.41;90.04;96514.75;5205284;28;20655;-53
2022/03/30 05:50:25;;;;;;;31.17;27.47;;;8.90;99.90;;;9.43;91.29;96513.09;5205132;28;20225;-51
2022/03/30 05:52:58;;;;;;;30.43;26.47;;;8.90;99.90;;;9.34;90.25;96517.84;5204964;28;20657;-54
2022/03/30 05:55:31;;;;;;;30.07;25.97;;;8.70;99.90;;;9.36;92.02;96518.78;5205450;28;20244;-51
2022/03/30 05:58:06;;;;;;;27.73;24.20;;;8.70;99.90;;;9.37;92.09;96517.09;5205237;28;20240;-56
2022/03/30 06:00:40;;;;;;;29.17;25.30;;;8.70;99.90;;;9.27;92.55;96515.88;5205167;28;20232;-53
2022/03/30 06:03:14;;;;;;;28.23;24.63;;;8.60;99.90;;;9.13;92.75;96524.59;5204397;28;20202;-52
2022/03/30 06:05:47;;;;;;;29.10;25.77;;;8.50;99.90;;;9.05;93.96;96518.34;5205917;28;20222;-54
2022/03/30 06:08:20;;;;;;;37.07;27.40;;;8.50;99.90;;;8.98;93.96;96514.66;5204812;28;20208;-55
2022/03/30 06:10:53;;;;;;;36.97;29.37;;;8.40;99.90;;;9.02;95.08;96524.19;5205152;28;20220;-53
2022/03/30 06:13:28;;;;;;;31.67;28.00;;;8.40;99.90;;;9.05;96.59;96516.66;5204129;28;20210;-52
2022/03/30 06:16:01;;;;;;;32.23;28.60;;;8.40;99.90;;;9.07;97.79;96519.25;5205414;28;20237;-55
2022/03/30 06:18:34;;;;;;;34.20;27.97;;;8.40;99.90;;;9.10;97.89;96517.72;5205115;28;20190;-56
2022/03/30 06:21:07;;;;;;;29.67;26.33;;;8.40;99.90;;;9.05;98.17;96518.34;5205924;28;20221;-55
2022/03/30 06:23:40;;;;;;;35.27;28.57;;;8.40;99.90;;;9.01;100.00;96532.63;5204668;28;20249;-55
2022/03/30 06:26:13;;;;;;;31.93;27.93;;;8.40;99.90;;;8.95;100.00;96523.03;5204582;28;20297;-54
2022/03/30 06:28:49;;;;;;;35.17;29.27;;;8.30;99.90;;;8.92;99.38;96522.06;5199754;28;20206;-56
2022/03/30 06:31:22;;;;;;;34.53;29.67;;;8.20;99.90;;;8.87;99.88;96529.53;5202986;28;20304;-58
2022/03/30 06:33:55;;;;;;;40.67;31.87;;;8.20;99.90;;;8.86;99.63;96527.75;5202045;28;20589;-50
2022/03/30 06:36:29;;;;;;;40.63;33.37;;;8.20;99.90;;;8.90;99.73;96526.22;5201653;28;20679;-55
2022/03/30 06:39:02;;;;;;;35.40;30.30;;;8.20;99.90;;;8.90;100.00;96529.66;5200113;28;20677;-51
2022/03/30 06:41:35;;;;;;;41.83;31.93;;;8.30;99.90;;;8.95;100.00;96524.72;5200473;28;20679;-56
2022/03/30 06:44:10;;;;;;;43.30;33.87;;;8.30;99.90;;;9.00;100.00;96518.16;5201819;28;20226;-57
2022/03/30 06:46:43;;;;;;;37.10;30.77;;;8.30;99.90;;;8.97;100.00;96513.78;5208785;28;20197;-55
2022/03/30 06:49:16;;;;;;;38.83;31.73;;;8.30;99.90;;;8.92;100.00;96515.28;5203093;28;20582;-55
2022/03/30 06:51:52;;;;;;;35.57;29.70;;;8.30;99.90;;;8.92;100.00;96501.66;5199457;28;20661;-55
2022/03/30 06:54:25;;;;;;;39.80;32.63;;;8.30;99.90;;;8.91;100.00;96505.03;5202341;28;20221;-52
2022/03/30 06:56:59;;;;;;;43.63;33.33;;;8.30;99.90;;;8.92;100.00;96501.66;5201248;28;20232;-56
2022/03/30 06:59:33;;;;;;;36.97;31.37;;;8.30;99.90;;;8.98;100.00;96496.81;5206572;28;20229;-53
2022/03/30 07:02:07;;;;;;;42.33;33.30;;;8.40;99.90;;;9.02;100.00;96491.94;5200520;28;20205;-54
2022/03/30 07:04:40;;;;;;;46.10;35.67;;;8.40;99.90;;;9.10;100.00;96492.25;5197784;28;20222;-56
2022/03/30 07:10:16;;;;;;;50.13;37.20;;;8.60;99.90;;;9.16;100.00;96496.72;5203564;28;20206;-53
2022/03/30 07:12:51;;;;;;;46.60;35.37;;;8.60;99.90;;;9.11;100.00;96498.22;5201220;28;20292;-55
2022/03/30 07:15:26;;;;;;;50.50;37.27;;;8.50;99.90;;;9.10;100.00;96497.34;5202052;28;20239;-54
2022/03/30 07:18:01;;;;;;;47.67;37.60;;;8.50;99.90;;;9.01;100.00;96492.75;5203305;28;20197;-58
2022/03/30 07:20:37;;;;;;;49.00;35.97;;;8.40;99.90;;;9.02;100.00;96484.28;5201834;28;20201;-56
2022/03/30 07:23:10;;;;;;;48.27;36.67;;;8.40;99.90;;;8.98;100.00;96474.75;5200757;28;20296;-55
2022/03/30 07:25:44;;;;;;;53.00;40.67;;;8.40;99.90;;;8.99;100.00;96483.28;5203008;28;20627;-55
2022/03/30 07:28:17;;;;;;;45.73;36.00;;;8.40;99.90;;;8.96;100.00;96478.06;5199819;28;20297;-55
2022/03/30 07:30:53;;;;;;;52.20;36.57;;;8.30;99.90;;;8.87;100.00;96470.94;5202232;28;20677;-53
2022/03/30 07:33:26;;;;;;;47.60;36.37;;;8.30;99.90;;;8.88;100.00;96470.09;5200121;28;20680;-57
2022/03/30 07:35:59;;;;;;;47.37;38.53;;;8.20;99.90;;;8.83;100.00;96461.41;5200809;28;20285;-53
2022/03/30 07:38:32;;;;;;;49.93;39.70;;;8.20;99.90;;;8.85;100.00;96466.56;5201145;28;20229;-53
2022/03/30 07:41:06;;;;;;;50.47;37.40;;;8.20;99.90;;;8.90;100.00;96458.31;5199317;28;20230;-52
2022/03/30 07:43:39;;;;;;;49.43;37.73;;;8.30;99.90;;;8.94;100.00;96459.31;5200623;28;20226;-58
2022/03/30 07:46:14;;;;;;;46.47;35.73;;;8.40;99.90;;;9.00;100.00;96460.41;5200725;28;20263;-55
2022/03/30 07:48:47;;;;;;;47.67;34.70;;;8.40;99.90;;;8.96;100.00;96458.56;5200263;28;20190;-53
2022/03/30 07:51:20;;;;;;;45.20;34.63;;;8.30;99.90;;;9.03;100.00;96465.63;5200990;28;20249;-55
2022/03/30 07:53:53;;;;;;;46.00;34.53;;;8.30;99.90;;;9.10;100.00;96468.41;5200960;28;20218;-57
2022/03/30 07:56:26;;;;;;;49.67;36.07;;;8.50;99.90;;;9.05;100.00;96460.59;5202875;28;20209;-55
2022/03/30 07:59:01;;;;;;;47.43;34.50;;;8.40;99.90;;;9.07;100.00;96461.53;5201457;28;20241;-54
2022/03/30 08:01:35;;;;;;;45.50;34.30;;;8.40;99.90;;;9.07;100.00;96451.34;5202609;28;20304;-57
2022/03/30 08:04:09;;;;;;;43.40;34.57;;;8.40;99.90;;;9.10;100.00;96456.56;5201748;28;20224;-52
2022/03/30 08:06:42;;;;;;;46.87;35.57;;;8.40;99.90;;;9.10;100.00;96450.56;5199241;28;20649;-59
2022/03/30 08:09:15;;;;;;;39.90;32.47;;;8.50;99.90;;;9.12;100.00;96452.38;5201219;28;20297;-53
2022/03/30 08:11:48;;;;;;;45.60;34.80;;;8.50;99.90;;;9.18;100.00;96452.59;5200625;28;20271;-58
2022/03/30 08:14:21;;;;;;;46.80;34.70;;;8.60;99.90;;;9.25;100.00;96458.84;5200602;28;20344;-54
2022/03/30 08:16:56;;;;;;;42.37;32.77;;;8.60;99.90;;;9.31;100.00;96451.44;5202158;28;20229;-60
2022/03/30 08:19:29;;;;;;;44.90;33.83;;;8.70;99.90;;;9.31;100.00;96461.63;5196691;28;20677;-59
2022/03/30 08:24:55;;;;;;;52.73;36.87;;;8.70;99.90;;;9.37;100.00;96446.56;5199883;28;20222;-56
2022/03/30 08:27:30;;;;;;;46.23;36.20;;;8.60;99.90;;;9.35;100.00;96457.50;5201591;28;20648;-56
2022/03/30 08:30:06;;;;;;;47.13;33.60;;;8.70;99.90;;;9.40;100.00;96451.78;5200431;28;20657;-57
2022/03/30 08:32:41;;;;;;;41.67;33.40;;;8.70;99.90;;;9.40;100.00;96464.53;5198336;28;20202;-55
2022/03/30 08:35:14;;;;;;;43.40;33.27;;;8.70;99.90;;;9.47;100.00;96452.88;5200392;28;20229;-56
2022/03/30 08:37:47;;;;;;;47.33;34.57;;;8.70;99.90;;;9.48;100.00;96449.53;5202186;28;20662;-58
2022/03/30 08:40:21;;;;;;;41.07;32.33;;;8.80;99.90;;;9.48;100.00;96463.16;5198672;28;20316;-57
2022/03/30 08:42:55;;;;;;;41.40;31.70;;;8.80;99.90;;;9.51;100.00;96456.44;5202406;28;20241;-57
2022/03/30 08:45:28;;;;;;;44.50;33.23;;;8.70;99.90;;;9.52;100.00;96461.56;5201335;28;20309;-57
2022/03/30 08:48:04;;;;;;;43.40;32.37;;;8.80;99.90;;;9.53;100.00;96462.44;5201168;28;20233;-55
2022/03/30 08:50:38;;;;;;;46.27;31.87;;;8.80;99.90;;;9.56;100.00;96454.94;5201496;28;20204;-58
2022/03/30 08:53:14;;;;;;;43.83;33.97;;;8.80;99.90;;;9.60;100.00;96460.19;5201381;28;20221;-61
2022/03/30 08:55:47;;;;;;;42.17;32.70;;;8.90;99.90;;;9.66;100.00;96459.56;5200254;28;20217;-57
2022/03/30 08:58:20;;;;;;;44.63;33.50;;;8.90;99.90;;;9.71;100.00;96455.50;5199907;28;20626;-57
2022/03/30 09:00:54;;;;;;;46.53;34.33;;;9.00;99.90;;;9.73;100.00;96456.44;5205456;28;20221;-59
2022/03/30 09:03:29;;;;;;;46.33;34.80;;;9.00;99.90;;;9.79;100.00;96460.91;5205409;28;20239;-62
2022/03/30 09:06:03;;;;;;;47.57;34.30;;;9.10;99.90;;;9.80;100.00;96452.41;5203192;28;20694;-56
2022/03/30 09:08:43;;;;;;;43.67;32.57;;;9.10;99.90;;;9.85;100.00;96467.09;5207116;28;20197;-59
2022/03/30 09:11:16;;;;;;;47.77;33.50;;;9.10;99.90;;;9.92;100.00;96455.41;5205308;28;20239;-59
2022/03/30 09:14:02;;;;;;;46.63;32.23;;;9.20;99.90;;;10.01;100.00;96454.88;5205186;28;20565;-54
2022/03/30 09:16:41;;;;;;;41.40;30.53;;;9.20;99.90;;;10.04;100.00;96449.88;5204378;28;20212;-56
2022/03/30 09:19:17;;;;;;;41.60;33.33;;;9.20;99.90;;;10.13;100.00;96442.59;5204910;28;20201;-57
2022/03/30 09:21:52;;;;;;;38.43;30.10;;;9.30;99.90;;;10.12;100.00;96445.94;5204977;28;20637;-59
2022/03/30 09:24:28;;;;;;;42.37;31.97;;;9.30;99.90;;;10.10;100.00;96443.34;5205785;28;20754;-55
2022/03/30 09:27:03;;;;;;;42.73;33.40;;;9.30;99.90;;;10.19;100.00;96437.69;5204229;28;20267;-58
2022/03/30 09:29:38;;;;;;;38.30;32.53;;;9.40;99.90;;;10.21;100.00;96435.16;5207109;28;20246;-56
2022/03/30 09:32:30;;;;;;;38.90;31.10;;;9.40;99.90;;;10.23;100.00;96431.84;5203491;28;20222;-57
2022/03/30 09:35:06;;;;;;;40.63;32.27;;;9.40;99.90;;;10.29;100.00;96434.66;5204178;28;20257;-53
2022/03/30 09:37:42;;;;;;;38.80;30.57;;;9.40;99.90;;;10.33;100.00;96433.97;5206081;28;20194;-53
2022/03/30 09:40:16;;;;;;;38.47;30.67;;;9.50;99.90;;;10.33;100.00;96430.50;5201728;28;20395;-55
2022/03/30 09:42:49;;;;;;;38.27;30.37;;;9.50;99.90;;;10.43;100.00;96426.63;5200979;28;20201;-57
2022/03/30 09:45:29;;;;;;;37.03;30.10;;;9.60;99.90;;;10.46;100.00;96430.13;5204311;28;20221;-57
2022/03/30 09:48:12;;;;;;;40.27;30.57;;;9.70;99.90;;;10.31;100.00;96425.38;5203973;28;20686;-58
2022/03/30 09:50:50;;;;;;;38.00;29.17;;;9.60;99.90;;;10.40;100.00;96431.63;5204107;28;20733;-56
2022/03/30 09:53:28;;;;;;;40.03;28.73;;;9.60;99.90;;;10.40;100.00;96426.50;5207896;28;20206;-54
2022/03/30 09:56:05;;;;;;;42.43;29.43;;;9.70;99.90;;;10.44;100.00;96424.09;5204220;28;20329;-53
2022/03/30 09:58:40;;;;;;;38.10;29.47;;;9.70;99.90;;;10.50;100.00;96419.22;5199473;28;20237;-61
2022/03/30 10:01:20;;;;;;;32.60;27.90;;;9.70;99.90;;;10.60;100.00;96416.13;5204162;28;20237;-55
2022/03/30 10:03:59;;;;;;;39.97;27.43;;;9.80;99.90;;;10.54;100.00;96417.63;5202708;28;20224;-58
2022/03/30 10:06:36;;;;;;;40.03;28.70;;;9.80;99.90;;;10.56;100.00;96404.09;5203662;28;20205;-57
2022/03/30 10:09:17;;;;;;;38.63;28.17;;;9.70;99.90;;;10.58;100.00;96406.69;5204862;28;20210;-57
2022/03/30 10:11:51;;;;;;;34.00;26.53;;;9.80;99.90;;;10.62;100.00;96397.47;5206672;28;20225;-57
2022/03/30 10:14:25;;;;;;;33.83;26.70;;;9.80;99.90;;;10.59;100.00;96396.53;5202285;28;20308;-58
2022/03/30 10:16:58;;;;;;;32.13;26.07;;;9.80;99.90;;;10.60;100.00;96398.25;5198830;28;20225;-59
2022/03/30 10:19:32;;;;;;;30.50;25.50;;;9.80;99.90;;;10.64;100.00;96401.78;5201916;28;20194;-57
2022/03/30 10:22:33;;;;;;;34.40;27.93;;;9.80;99.90;;;10.68;100.00;96393.41;5203051;28;20198;-54
2022/03/30 10:25:19;;;;;;;35.77;28.97;;;9.80;99.90;;;10.68;100.00;96392.53;5201136;28;20220;-58
2022/03/30 10:27:55;;;;;;;35.33;27.67;;;9.80;99.90;;;10.70;100.00;96391.78;5205002;28;20654;-57
2022/03/30 10:30:32;;;;;;;34.70;28.47;;;9.90;99.90;;;10.71;100.00;96390.09;5204429;28;20199;-56
2022/03/30 10:33:05;;;;;;;36.43;29.67;;;9.80;99.90;;;10.77;100.00;96387.72;5213236;28;20608;-56
2022/03/30 10:35:42;;;;;;;35.47;27.83;;;9.90;99.90;;;10.83;100.00;96387.91;5211583;28;20244;-59
2022/03/30 10:38:17;;;;;;;33.93;27.27;;;9.90;99.90;;;10.71;100.00;96390.94;5205037;28;20193;-55
2022/03/30 10:41:08;;;;;;;38.73;29.43;;;9.80;99.90;;;10.70;100.00;96384.13;5210204;28;20623;-53
2022/03/30 10:43:42;;;;;;;42.97;29.90;;;9.80;99.90;;;10.71;100.00;96383.28;5200329;28;20236;-56
2022/03/30 10:46:15;;;;;;;37.03;29.33;;;9.80;99.90;;;10.78;100.00;96390.31;5201153;28;20201;-54
2022/03/30 10:48:48;;;;;;;34.00;26.07;;;9.90;99.90;;;10.87;100.00;96381.22;5216502;28;20297;-58
2022/03/30 10:51:21;;;;;;;32.97;26.20;;;10.00;99.90;;;10.92;100.00;96379.66;5207366;28;20621;-54